Terminal Aerodrome Forecast
Issued by NWS

Home | Current Version | Previous Version | Graphics & Text | Print | Product List | Glossary On
Versions: 1 2 3 4 5 6 7 8 9 10 11 12 13 14 15 16 17 18 19 20 21 22 23 24 25 26 27 28
000
FTUS45 KGGW 171720
TAFOLF
TAF
KOLF 171720Z 1718/1818 03008KT 5SM -SNRA OVC008
     FM171900 34010KT 3SM -SNRA OVC006
      TEMPO 1721/1723 1SM -SN BKN003
     FM172300 30007KT 6SM -SHSN OVC015
     FM180000 29004KT P6SM OVC045
     FM181200 28005KT P6SM SCT025=

USA.gov is the U.S. government's official web portal to all federal, state and local government web resources and services.